createdAt,value
2022-10-12T00:01:12.558Z,23.82
2022-10-12T00:03:41.210Z,23.81
2022-10-12T00:06:11.653Z,23.81
2022-10-12T00:08:40.972Z,23.80
2022-10-12T00:11:12.232Z,23.80
2022-10-12T00:13:40.794Z,23.80
2022-10-12T00:16:12.117Z,23.81
2022-10-12T00:18:40.844Z,23.80
2022-10-12T00:21:10.860Z,23.82
2022-10-12T00:23:39.603Z,23.84
2022-10-12T00:26:09.425Z,23.83
2022-10-12T00:28:38.051Z,23.81
2022-10-12T00:31:10.423Z,23.80
2022-10-12T00:33:39.154Z,23.79
2022-10-12T00:36:16.079Z,23.80
2022-10-12T00:38:44.666Z,23.79
2022-10-12T00:41:13.340Z,23.79
2022-10-12T00:43:43.144Z,23.79
2022-10-12T00:46:17.942Z,23.79
2022-10-12T00:48:47.006Z,23.79
2022-10-12T00:51:15.465Z,23.79
2022-10-12T00:53:46.895Z,23.78
2022-10-12T00:56:18.243Z,23.79
2022-10-12T00:58:47.049Z,23.79
2022-10-12T01:01:17.003Z,23.78
2022-10-12T01:03:45.650Z,23.79
2022-10-12T01:06:14.124Z,23.78
2022-10-12T01:08:42.632Z,23.78
2022-10-12T01:11:11.699Z,23.79
2022-10-12T01:13:40.385Z,23.79
2022-10-12T01:16:12.640Z,23.79
2022-10-12T01:18:46.882Z,23.78
2022-10-12T01:21:19.471Z,23.79
2022-10-12T01:24:20.009Z,23.78
2022-10-12T01:27:04.929Z,23.78
2022-10-12T01:30:16.425Z,23.78
2022-10-12T01:33:09.347Z,23.78
2022-10-12T01:35:43.657Z,23.78
2022-10-12T01:38:22.657Z,23.77
2022-10-12T01:40:55.777Z,23.77
2022-10-12T01:43:24.530Z,23.77
2022-10-12T01:45:54.613Z,23.78
2022-10-12T01:48:23.165Z,23.78
2022-10-12T01:50:53.513Z,23.78
2022-10-12T01:53:29.242Z,23.77
2022-10-12T01:56:00.658Z,23.76
2022-10-12T01:58:40.741Z,23.78
2022-10-12T02:01:17.674Z,23.76
2022-10-12T02:03:49.657Z,23.77
2022-10-12T02:06:19.751Z,23.76
2022-10-12T02:08:51.614Z,23.76
2022-10-12T02:11:22.208Z,23.76
2022-10-12T02:13:52.676Z,23.75
2022-10-12T02:16:26.858Z,23.76
2022-10-12T02:18:56.633Z,23.76
2022-10-12T02:21:27.686Z,23.76
2022-10-12T02:23:56.217Z,23.75
2022-10-12T02:26:24.753Z,23.76
2022-10-12T02:28:53.344Z,23.76
2022-10-12T02:31:29.798Z,23.75
2022-10-12T02:34:06.077Z,23.76
2022-10-12T02:36:39.013Z,23.76
2022-10-12T02:39:10.788Z,23.75
2022-10-12T02:41:42.174Z,23.75
2022-10-12T02:44:11.865Z,23.76
2022-10-12T02:46:42.018Z,23.76
2022-10-12T02:49:10.637Z,23.76
2022-10-12T02:51:39.828Z,23.75
2022-10-12T02:54:08.277Z,23.75
2022-10-12T02:56:36.807Z,23.74
2022-10-12T02:59:05.361Z,23.74
2022-10-12T03:01:33.952Z,23.74
2022-10-12T03:04:04.027Z,23.74
2022-10-12T03:06:32.560Z,23.74
2022-10-12T03:09:01.715Z,23.72
2022-10-12T03:11:30.368Z,23.72
2022-10-12T03:13:59.136Z,23.72
2022-10-12T03:16:27.890Z,23.72
2022-10-12T03:18:56.394Z,23.71
2022-10-12T03:21:26.431Z,23.71
2022-10-12T03:23:55.037Z,23.71
2022-10-12T03:26:23.553Z,23.71
2022-10-12T03:28:52.062Z,23.70
2022-10-12T03:31:20.647Z,23.71
2022-10-12T03:33:49.310Z,23.70
2022-10-12T03:36:17.817Z,23.71
2022-10-12T03:38:47.762Z,23.71
2022-10-12T03:41:16.223Z,23.71
2022-10-12T03:43:44.716Z,23.70
2022-10-12T03:46:13.913Z,23.69
2022-10-12T03:48:42.482Z,23.70
2022-10-12T03:51:11.039Z,23.70
2022-10-12T03:53:45.019Z,23.69
2022-10-12T03:56:15.324Z,23.70
2022-10-12T03:58:43.865Z,23.69
2022-10-12T04:01:12.415Z,23.70
2022-10-12T04:03:40.970Z,23.69
2022-10-12T04:06:09.480Z,23.69
2022-10-12T04:08:40.150Z,23.69
2022-10-12T04:11:08.927Z,23.69
2022-10-12T04:13:38.987Z,23.69
2022-10-12T04:16:10.284Z,23.68
2022-10-12T04:18:38.751Z,23.68
2022-10-12T04:21:10.228Z,23.68
2022-10-12T04:23:38.858Z,23.68
2022-10-12T04:26:07.482Z,23.68
2022-10-12T04:28:36.152Z,23.68
2022-10-12T04:31:06.097Z,23.68
2022-10-12T04:33:34.562Z,23.67
2022-10-12T04:36:03.131Z,23.68
2022-10-12T04:38:31.678Z,23.67
2022-10-12T04:41:00.319Z,23.66
2022-10-12T04:43:28.743Z,23.67
2022-10-12T04:45:57.668Z,23.66
2022-10-12T04:48:28.088Z,23.67
2022-10-12T04:50:56.604Z,23.66
2022-10-12T04:53:25.212Z,23.66
2022-10-12T04:55:53.719Z,23.66
2022-10-12T04:58:22.185Z,23.68
2022-10-12T05:00:50.970Z,23.69
2022-10-12T05:03:19.400Z,23.68
2022-10-12T05:05:49.662Z,23.67
2022-10-12T05:08:18.039Z,23.69
2022-10-12T05:10:47.375Z,23.69
2022-10-12T05:13:15.958Z,23.72
2022-10-12T05:15:44.596Z,23.72
2022-10-12T05:18:13.101Z,23.72
2022-10-12T05:20:41.692Z,23.73
2022-10-12T05:23:12.352Z,23.71
2022-10-12T05:25:40.940Z,23.74
2022-10-12T05:28:09.542Z,23.66
2022-10-12T05:30:38.078Z,23.64
2022-10-12T05:33:06.548Z,23.68
2022-10-12T05:35:35.220Z,23.65
2022-10-12T05:38:03.759Z,23.63
2022-10-12T05:40:33.765Z,23.57
2022-10-12T05:43:02.719Z,23.56
2022-10-12T05:45:31.309Z,23.58
2022-10-12T05:47:59.774Z,23.57
2022-10-12T05:50:28.247Z,23.61
2022-10-12T05:52:56.908Z,23.56
2022-10-12T05:55:25.414Z,23.54
2022-10-12T05:57:55.438Z,23.54
2022-10-12T06:00:24.126Z,23.54
2022-10-12T06:02:52.864Z,23.55
2022-10-12T06:05:21.420Z,23.62
2022-10-12T06:07:50.024Z,23.66
2022-10-12T06:10:18.706Z,23.65
2022-10-12T06:12:47.271Z,23.60
2022-10-12T06:15:17.405Z,23.61
2022-10-12T06:17:45.956Z,23.61
2022-10-12T06:20:14.570Z,23.63
2022-10-12T06:22:43.195Z,23.62
2022-10-12T06:25:11.907Z,23.67
2022-10-12T06:27:40.412Z,23.67
2022-10-12T06:30:09.884Z,23.66
2022-10-12T06:32:40.344Z,23.67
2022-10-12T06:35:10.400Z,23.69
2022-10-12T06:37:49.476Z,23.71
2022-10-12T06:40:19.279Z,23.67
2022-10-12T06:42:47.894Z,23.66
2022-10-12T06:45:16.594Z,23.64
2022-10-12T06:47:46.567Z,23.65
2022-10-12T06:50:15.098Z,23.65
2022-10-12T06:52:44.159Z,23.65
2022-10-12T06:55:14.990Z,23.66
2022-10-12T06:57:43.538Z,23.67
2022-10-12T07:00:13.589Z,23.68
2022-10-12T07:02:42.273Z,23.67
2022-10-12T07:05:12.344Z,23.68
2022-10-12T07:07:40.962Z,23.69
2022-10-12T07:10:10.474Z,23.67
2022-10-12T07:12:40.703Z,23.69
2022-10-12T07:15:10.624Z,23.69
2022-10-12T07:17:39.433Z,23.69
2022-10-12T07:20:08.944Z,23.70
2022-10-12T07:22:38.963Z,23.68
2022-10-12T07:25:08.799Z,23.72
2022-10-12T07:27:37.666Z,23.73
2022-10-12T07:30:07.729Z,23.77
2022-10-12T07:32:36.902Z,23.75
2022-10-12T07:35:06.496Z,23.71
2022-10-12T07:37:34.933Z,23.71
2022-10-12T07:40:05.284Z,23.70
2022-10-12T07:42:33.983Z,23.70
2022-10-12T07:45:02.611Z,23.70
2022-10-12T07:47:31.210Z,23.71
2022-10-12T07:49:59.743Z,23.70
2022-10-12T07:52:28.478Z,23.71
2022-10-12T07:54:57.083Z,23.70
2022-10-12T07:57:26.908Z,23.72
2022-10-12T07:59:55.756Z,23.72
2022-10-12T08:02:24.206Z,23.71
2022-10-12T08:04:53.409Z,23.70
2022-10-12T08:07:22.195Z,23.71
2022-10-12T08:09:50.826Z,23.72
2022-10-12T08:12:19.378Z,23.74
2022-10-12T08:14:49.458Z,23.73
2022-10-12T08:17:18.041Z,23.72
2022-10-12T08:19:46.598Z,23.73
2022-10-12T08:22:15.596Z,23.73
2022-10-12T08:24:44.219Z,23.74
2022-10-12T08:27:12.779Z,23.75
2022-10-12T08:29:41.358Z,23.76
2022-10-12T08:32:11.322Z,23.75
2022-10-12T08:34:39.778Z,23.75
2022-10-12T08:37:08.521Z,23.75
2022-10-12T08:39:40.294Z,23.76
2022-10-12T08:42:17.768Z,23.76
2022-10-12T08:45:04.899Z,23.77
2022-10-12T08:47:39.946Z,23.77
2022-10-12T08:50:12.759Z,23.77
2022-10-12T08:52:44.766Z,23.78
2022-10-12T08:55:21.862Z,23.78
2022-10-12T08:57:50.474Z,23.78
2022-10-12T09:00:20.215Z,23.79
2022-10-12T09:03:02.155Z,23.78
2022-10-12T09:05:34.704Z,23.79
2022-10-12T09:08:05.675Z,23.78
2022-10-12T09:10:44.209Z,23.80
2022-10-12T09:13:22.295Z,23.80
2022-10-12T09:15:53.759Z,23.80
2022-10-12T09:18:28.866Z,23.80
2022-10-12T09:20:57.373Z,23.79
2022-10-12T09:23:27.351Z,23.79
2022-10-12T09:26:02.605Z,23.78
2022-10-12T09:28:37.736Z,23.80
2022-10-12T09:31:19.165Z,23.79
2022-10-12T09:33:52.406Z,23.84
2022-10-12T09:36:23.687Z,23.84
2022-10-12T09:38:52.223Z,23.83
2022-10-12T09:41:23.213Z,23.83
2022-10-12T09:43:52.671Z,23.83
2022-10-12T09:46:24.217Z,23.83
2022-10-12T09:49:00.912Z,23.84
2022-10-12T09:51:30.004Z,23.87
2022-10-12T09:54:03.400Z,23.89
2022-10-12T09:56:39.835Z,23.88
2022-10-12T09:59:24.767Z,23.87
2022-10-12T10:02:05.878Z,23.87
2022-10-12T10:04:35.832Z,23.87
2022-10-12T10:07:28.203Z,23.87
2022-10-12T10:10:18.311Z,23.87
2022-10-12T10:12:51.898Z,23.86
2022-10-12T10:15:23.799Z,23.87
2022-10-12T10:17:54.355Z,23.86
2022-10-12T10:20:29.612Z,23.87
2022-10-12T10:22:58.239Z,23.87
2022-10-12T10:25:27.042Z,23.87
2022-10-12T10:28:22.657Z,23.87
2022-10-12T10:31:01.020Z,23.88
2022-10-12T10:33:29.663Z,23.86
2022-10-12T10:36:06.311Z,23.87
2022-10-12T10:38:48.964Z,23.86
2022-10-12T10:41:18.395Z,23.86
2022-10-12T10:43:47.700Z,23.86
2022-10-12T10:46:16.656Z,23.86
2022-10-12T10:48:53.275Z,23.85
2022-10-12T10:51:23.289Z,23.86
2022-10-12T10:53:52.088Z,23.86
2022-10-12T10:56:23.082Z,23.86
2022-10-12T10:58:52.987Z,23.86
2022-10-12T11:01:25.419Z,23.86
2022-10-12T11:03:57.774Z,23.86
2022-10-12T11:06:37.194Z,23.87
2022-10-12T11:09:08.131Z,23.86
2022-10-12T11:11:37.806Z,23.86
2022-10-12T11:14:13.460Z,23.87
2022-10-12T11:16:46.762Z,23.87
2022-10-12T11:19:31.100Z,23.87
2022-10-12T11:22:03.534Z,23.87
2022-10-12T11:24:36.252Z,23.87
2022-10-12T11:27:06.948Z,23.86
2022-10-12T11:29:35.539Z,23.86
2022-10-12T11:32:05.514Z,23.86
2022-10-12T11:34:40.330Z,23.86
2022-10-12T11:37:20.616Z,23.86
2022-10-12T11:39:51.191Z,23.86
2022-10-12T11:42:28.892Z,23.85
2022-10-12T11:44:57.483Z,23.85
2022-10-12T11:47:33.084Z,23.85
2022-10-12T11:50:03.060Z,23.85
2022-10-12T11:52:38.163Z,23.86
2022-10-12T11:55:37.490Z,23.86
2022-10-12T11:58:13.475Z,23.86
2022-10-12T12:00:54.088Z,23.85
2022-10-12T12:03:26.775Z,23.85
2022-10-12T12:05:55.640Z,23.84
2022-10-12T12:08:59.858Z,23.84
2022-10-12T12:11:29.984Z,23.83
2022-10-12T12:14:50.379Z,23.84
2022-10-12T12:17:29.338Z,23.83
2022-10-12T12:20:00.957Z,23.84
2022-10-12T12:22:35.350Z,23.85
2022-10-12T12:25:18.846Z,23.84
2022-10-12T12:27:50.272Z,23.84
2022-10-12T12:30:38.042Z,23.84
2022-10-12T12:33:25.907Z,23.85
2022-10-12T12:35:56.782Z,23.85
2022-10-12T12:38:31.240Z,23.84
2022-10-12T12:41:07.850Z,23.84
2022-10-12T12:44:01.540Z,23.84
2022-10-12T12:47:43.854Z,23.84
2022-10-12T12:50:29.755Z,23.84
2022-10-12T12:53:04.216Z,23.85
2022-10-12T12:55:57.320Z,23.84
2022-10-12T12:59:02.467Z,23.84
2022-10-12T13:01:50.127Z,23.83
2022-10-12T13:04:36.023Z,23.86
2022-10-12T13:07:48.897Z,23.86
2022-10-12T13:10:29.465Z,23.85
2022-10-12T13:13:38.763Z,23.84
2022-10-12T13:19:22.446Z,23.85
2022-10-12T13:21:52.680Z,23.84
2022-10-12T13:24:24.392Z,23.83
2022-10-12T13:26:54.700Z,23.84
2022-10-12T13:29:30.739Z,23.84
2022-10-12T13:32:00.982Z,23.84
2022-10-12T13:34:33.090Z,23.84
2022-10-12T13:37:03.151Z,23.83
2022-10-12T13:39:36.398Z,23.83
2022-10-12T13:42:06.996Z,23.83
2022-10-12T13:44:37.586Z,23.83
2022-10-12T13:47:24.884Z,23.83
2022-10-12T13:49:53.567Z,23.85
2022-10-12T13:52:29.610Z,23.87
2022-10-12T13:55:00.820Z,23.86
2022-10-12T13:57:31.930Z,23.86
2022-10-12T14:00:05.342Z,23.84
2022-10-12T14:02:33.902Z,23.85
2022-10-12T14:05:06.527Z,23.85
2022-10-12T14:07:36.673Z,23.84
2022-10-12T14:10:07.879Z,23.85
2022-10-12T14:12:36.582Z,23.85
2022-10-12T14:15:07.816Z,23.85
2022-10-12T14:17:44.666Z,23.90
2022-10-12T14:20:18.795Z,23.90
2022-10-12T14:22:48.661Z,23.87
2022-10-12T14:25:19.584Z,23.85
2022-10-12T14:27:48.139Z,23.84
2022-10-12T14:30:21.377Z,23.84
2022-10-12T14:32:50.306Z,23.83
2022-10-12T14:35:27.432Z,23.83
2022-10-12T14:37:56.450Z,23.84
2022-10-12T14:40:30.393Z,23.84
2022-10-12T14:43:04.957Z,23.83
2022-10-12T14:45:35.257Z,23.84
2022-10-12T14:48:05.057Z,23.83
2022-10-12T14:50:34.025Z,23.83
2022-10-12T14:53:04.482Z,23.83
2022-10-12T14:55:34.135Z,23.83
2022-10-12T14:58:03.761Z,23.84
2022-10-12T15:00:35.386Z,23.82
2022-10-12T15:03:04.347Z,23.83
2022-10-12T15:05:33.752Z,23.83
2022-10-12T15:08:07.318Z,23.83
2022-10-12T15:10:36.006Z,23.83
2022-10-12T15:13:04.569Z,23.88
2022-10-12T15:15:38.254Z,23.90
2022-10-12T15:18:07.479Z,23.89
2022-10-12T15:20:36.604Z,23.85
2022-10-12T15:23:05.259Z,23.84
2022-10-12T15:25:43.964Z,23.85
2022-10-12T15:28:13.125Z,23.88
2022-10-12T15:31:11.843Z,23.86
2022-10-12T15:33:32.103Z,23.85
2022-10-12T15:36:00.610Z,23.87
2022-10-12T15:38:29.207Z,23.86
2022-10-12T15:40:58.361Z,23.91
2022-10-12T15:43:27.175Z,23.89
2022-10-12T15:45:57.570Z,23.88
2022-10-12T15:48:27.862Z,23.87
2022-10-12T15:50:56.379Z,23.89
2022-10-12T15:53:26.277Z,23.88
2022-10-12T15:55:55.268Z,23.90
2022-10-12T15:58:23.949Z,23.92
2022-10-12T16:00:52.598Z,23.91
2022-10-12T16:03:25.928Z,23.92
2022-10-12T16:05:55.159Z,23.91
2022-10-12T16:08:23.738Z,23.92
2022-10-12T16:10:52.598Z,23.93
2022-10-12T16:13:21.458Z,23.93
2022-10-12T16:15:50.131Z,23.93
2022-10-12T16:18:18.869Z,23.81
2022-10-12T16:20:53.539Z,23.53
2022-10-12T16:23:23.836Z,23.54
2022-10-12T16:25:52.492Z,23.48
2022-10-12T16:28:21.014Z,23.40
2022-10-12T16:30:50.114Z,23.34
2022-10-12T16:33:19.002Z,23.63
2022-10-12T16:35:48.903Z,23.72
2022-10-12T16:38:19.916Z,23.77
2022-10-12T16:40:49.926Z,23.80
2022-10-12T16:43:19.513Z,23.84
2022-10-12T16:45:56.948Z,23.82
2022-10-12T16:48:25.511Z,23.82
2022-10-12T16:50:55.367Z,23.82
2022-10-12T16:53:23.860Z,23.84
2022-10-12T16:55:52.572Z,23.86
2022-10-12T16:58:21.051Z,23.85
2022-10-12T17:00:49.594Z,23.84
2022-10-12T17:03:18.168Z,23.83
2022-10-12T17:05:47.944Z,23.84
2022-10-12T17:08:17.797Z,23.85
2022-10-12T17:10:46.415Z,23.87
2022-10-12T17:13:15.133Z,23.89
2022-10-12T17:15:43.758Z,23.88
2022-10-12T17:18:12.461Z,23.94
2022-10-12T17:20:41.024Z,23.92
2022-10-12T17:23:09.492Z,23.93
2022-10-12T17:25:39.437Z,23.93
2022-10-12T17:28:08.143Z,23.93
2022-10-12T17:30:38.387Z,23.94
2022-10-12T17:33:06.937Z,23.92
2022-10-12T17:35:40.100Z,23.89
2022-10-12T17:38:08.680Z,23.92
2022-10-12T17:40:39.771Z,23.93
2022-10-12T17:43:08.374Z,23.92
2022-10-12T17:45:39.970Z,23.91
2022-10-12T17:48:09.134Z,23.91
2022-10-12T17:50:37.755Z,23.90
2022-10-12T17:53:06.380Z,23.86
2022-10-12T17:55:48.472Z,23.94
2022-10-12T17:58:17.636Z,23.90
2022-10-12T18:00:46.274Z,23.89
2022-10-12T18:03:14.947Z,23.90
2022-10-12T18:05:43.455Z,23.89
2022-10-12T18:08:12.157Z,23.87
2022-10-12T18:10:42.667Z,23.89
2022-10-12T18:13:11.340Z,23.87
2022-10-12T18:15:44.387Z,23.86
2022-10-12T18:18:15.338Z,23.85
2022-10-12T18:20:44.111Z,23.85
2022-10-12T18:23:12.755Z,23.85
2022-10-12T18:25:43.024Z,23.85
2022-10-12T18:28:12.519Z,23.85
2022-10-12T18:30:47.123Z,23.84
2022-10-12T18:33:16.217Z,23.84
2022-10-12T18:35:44.845Z,23.83
2022-10-12T18:38:13.726Z,23.85
2022-10-12T18:40:43.715Z,23.88
2022-10-12T18:43:12.489Z,23.87
2022-10-12T18:45:43.475Z,23.87
2022-10-12T18:48:12.709Z,23.88
2022-10-12T18:50:41.358Z,23.87
2022-10-12T18:53:10.022Z,23.86
2022-10-12T18:55:38.931Z,23.87
2022-10-12T18:58:08.939Z,23.86
2022-10-12T19:00:38.119Z,23.88
2022-10-12T19:03:07.018Z,23.87
2022-10-12T19:05:35.606Z,23.85
2022-10-12T19:08:04.275Z,23.85
2022-10-12T19:10:32.859Z,23.87
2022-10-12T19:13:01.699Z,23.88
2022-10-12T19:15:31.658Z,23.87
2022-10-12T19:18:00.475Z,23.87
2022-10-12T19:20:32.444Z,23.86
2022-10-12T19:23:00.959Z,23.87
2022-10-12T19:25:30.543Z,23.87
2022-10-12T19:27:59.907Z,23.88
2022-10-12T19:30:29.252Z,23.86
2022-10-12T19:32:59.138Z,23.85
2022-10-12T19:35:28.720Z,23.86
2022-10-12T19:37:57.324Z,23.86
2022-10-12T19:40:25.910Z,23.87
2022-10-12T19:42:54.427Z,23.86
2022-10-12T19:45:23.381Z,23.85
2022-10-12T19:47:52.190Z,23.85
2022-10-12T19:50:22.177Z,23.85
2022-10-12T19:52:50.675Z,23.84
2022-10-12T19:55:19.523Z,23.83
2022-10-12T19:57:50.605Z,23.81
2022-10-12T20:00:21.813Z,23.81
2022-10-12T20:02:50.955Z,23.80
2022-10-12T20:05:21.745Z,23.80
2022-10-12T20:07:52.316Z,23.79
2022-10-12T20:10:21.648Z,23.79
2022-10-12T20:12:50.197Z,23.78
2022-10-12T20:15:18.948Z,23.77
2022-10-12T20:17:47.387Z,23.77
2022-10-12T20:20:16.963Z,23.76
2022-10-12T20:22:47.039Z,23.76
2022-10-12T20:25:15.823Z,23.75
2022-10-12T20:27:44.424Z,23.75
2022-10-12T20:30:13.966Z,23.76
2022-10-12T20:32:42.467Z,23.74
2022-10-12T20:35:11.006Z,23.77
2022-10-12T20:37:39.585Z,23.77
2022-10-12T20:40:11.457Z,23.77
2022-10-12T20:42:40.027Z,23.74
2022-10-12T20:45:10.633Z,23.77
2022-10-12T20:47:39.250Z,23.76
2022-10-12T20:50:08.520Z,23.74
2022-10-12T20:52:37.204Z,23.73
2022-10-12T20:55:10.359Z,23.72
2022-10-12T20:57:38.852Z,23.73
2022-10-12T21:00:08.970Z,23.72
2022-10-12T21:02:38.568Z,23.72
2022-10-12T21:05:08.143Z,23.72
2022-10-12T21:07:36.757Z,23.72
2022-10-12T21:10:06.808Z,23.72
2022-10-12T21:12:38.848Z,23.71
2022-10-12T21:15:08.711Z,23.72
2022-10-12T21:17:37.228Z,23.71
2022-10-12T21:20:06.817Z,23.71
2022-10-12T21:22:35.442Z,23.71
2022-10-12T21:25:03.989Z,23.70
2022-10-12T21:27:32.508Z,23.70
2022-10-12T21:30:02.425Z,23.70
2022-10-12T21:32:31.884Z,23.70
2022-10-12T21:35:00.489Z,23.71
2022-10-12T21:37:29.917Z,23.70
2022-10-12T21:39:58.496Z,23.69
2022-10-12T21:42:27.065Z,23.69
2022-10-12T21:44:55.672Z,23.69
2022-10-12T21:47:25.616Z,23.68
2022-10-12T21:49:54.344Z,23.68
2022-10-12T21:52:22.909Z,23.69
2022-10-12T21:54:51.556Z,23.68
2022-10-12T21:57:20.099Z,23.69
2022-10-12T21:59:49.600Z,23.69
2022-10-12T22:02:18.452Z,23.68
2022-10-12T22:04:48.498Z,23.68
2022-10-12T22:07:17.308Z,23.69
2022-10-12T22:09:45.979Z,23.68
2022-10-12T22:12:14.649Z,23.68
2022-10-12T22:14:43.390Z,23.67
2022-10-12T22:17:11.975Z,23.68
2022-10-12T22:19:41.082Z,23.68
2022-10-12T22:22:11.087Z,23.67
2022-10-12T22:24:39.948Z,23.68
2022-10-12T22:27:08.500Z,23.68
2022-10-12T22:29:37.210Z,23.67
2022-10-12T22:32:06.218Z,23.67
2022-10-12T22:34:34.923Z,23.69
2022-10-12T22:37:03.428Z,23.67
2022-10-12T22:39:33.524Z,23.67
2022-10-12T22:42:03.857Z,23.67
2022-10-12T22:44:33.574Z,23.67
2022-10-12T22:47:02.070Z,23.67
2022-10-12T22:49:30.700Z,23.67
2022-10-12T22:51:59.161Z,23.66
2022-10-12T22:54:27.703Z,23.66
2022-10-12T22:56:57.494Z,23.64
2022-10-12T22:59:26.366Z,23.66
2022-10-12T23:01:54.937Z,23.65
2022-10-12T23:04:23.655Z,23.64
2022-10-12T23:06:52.229Z,23.66
2022-10-12T23:09:20.855Z,23.66
2022-10-12T23:11:50.851Z,23.65
2022-10-12T23:14:20.965Z,23.65
2022-10-12T23:16:49.449Z,23.65
2022-10-12T23:19:18.007Z,23.65
2022-10-12T23:21:48.347Z,23.64
2022-10-12T23:24:16.948Z,23.63
2022-10-12T23:26:45.558Z,23.64
2022-10-12T23:29:14.134Z,23.64
2022-10-12T23:31:44.098Z,23.65
2022-10-12T23:34:12.645Z,23.63
2022-10-12T23:36:41.162Z,23.64
2022-10-12T23:39:09.709Z,23.64
2022-10-12T23:41:38.409Z,23.63
2022-10-12T23:44:06.846Z,23.62
2022-10-12T23:46:35.585Z,23.63
2022-10-12T23:49:05.455Z,23.63
2022-10-12T23:51:34.085Z,23.63
2022-10-12T23:54:02.616Z,23.63
2022-10-12T23:56:31.270Z,23.62
2022-10-12T23:59:00.654Z,23.62
